Time;durP1;ratioP1;P1;durP2;ratioP2;P2;SDS_P1;SDS_P2;PMS_P1;PMS_P2;Temp;Humidity;BMP_temperature;BMP_pressure;BME280_temperature;BME280_humidity;BME280_pressure;Samples;Min_cycle;Max_cycle;Signal;HPM_P1;HPM_P2
2021/07/28 00:00:06;;;;;;;;;;;18.80;99.90;;;;;;5080505;28;19924;-61
2021/07/28 00:02:32;;;;;;;;;;;18.80;99.90;;;;;;5065150;28;19969;-60
2021/07/28 00:04:57;;;;;;;;;;;18.80;99.90;;;;;;5081325;28;20342;-61
2021/07/28 00:07:23;;;;;;;;;;;18.80;99.90;;;;;;5080897;28;19908;-61
2021/07/28 00:09:48;;;;;;;;;;;18.80;99.90;;;;;;5079392;28;19909;-59
2021/07/28 00:12:14;;;;;;;;;;;18.80;99.90;;;;;;5085494;28;19908;-62
2021/07/28 00:14:39;;;;;;;;;;;18.80;99.90;;;;;;5078665;28;19908;-61
2021/07/28 00:17:08;;;;;;;;;;;18.80;99.90;;;;;;5068268;28;20317;-61
2021/07/28 00:25:22;;;;;;;;;;;18.70;99.90;;;;;;5070979;28;19916;-62
2021/07/28 00:27:49;;;;;;;;;;;18.70;99.90;;;;;;5062924;28;20062;-60
2021/07/28 00:30:15;;;;;;;;;;;18.70;99.90;;;;;;5082029;28;19915;-62
2021/07/28 00:32:41;;;;;;;;;;;18.70;99.90;;;;;;5064125;28;19912;-62
2021/07/28 00:35:06;;;;;;;;;;;18.70;99.90;;;;;;5062863;28;19962;-62
2021/07/28 00:37:32;;;;;;;;;;;18.60;99.90;;;;;;5082452;28;19990;-62
2021/07/28 00:39:57;;;;;;;;;;;18.60;99.90;;;;;;5081510;28;19958;-63
2021/07/28 00:42:23;;;;;;;;;;;18.60;99.90;;;;;;5082455;28;19908;-61
2021/07/28 00:44:48;;;;;;;;;;;18.60;99.90;;;;;;5080055;28;20038;-62
2021/07/28 00:47:14;;;;;;;;;;;18.60;99.90;;;;;;5082427;28;19923;-62
2021/07/28 00:49:40;;;;;;;;;;;18.60;99.90;;;;;;5064426;28;19908;-63
2021/07/28 00:52:06;;;;;;;;;;;18.60;99.90;;;;;;5079964;28;20038;-62
2021/07/28 00:54:31;;;;;;;;;;;18.50;99.90;;;;;;5076468;28;20285;-61
2021/07/28 00:56:57;;;;;;;;;;;18.50;99.90;;;;;;5079961;28;19915;-61
2021/07/28 00:59:24;;;;;;;;;;;18.50;99.90;;;;;;5079357;28;19922;-63
2021/07/28 01:01:49;;;;;;;;;;;18.50;99.90;;;;;;5077717;28;19918;-61
2021/07/28 01:04:15;;;;;;;;;;;18.40;99.90;;;;;;5080576;28;20013;-61
2021/07/28 01:06:40;;;;;;;;;;;18.50;99.90;;;;;;5081643;28;19908;-62
2021/07/28 01:09:06;;;;;;;;;;;18.50;99.90;;;;;;5080066;28;19916;-62
2021/07/28 01:11:31;;;;;;;;;;;18.40;99.90;;;;;;5082243;28;20003;-63
2021/07/28 01:13:57;;;;;;;;;;;18.40;99.90;;;;;;5081057;28;19961;-62
2021/07/28 01:16:24;;;;;;;;;;;18.40;99.90;;;;;;5081445;28;19913;-62
2021/07/28 01:18:50;;;;;;;;;;;18.40;99.90;;;;;;5082077;28;20393;-60
2021/07/28 01:21:16;;;;;;;;;;;18.40;99.90;;;;;;5079374;28;19974;-61
2021/07/28 01:23:42;;;;;;;;;;;18.40;99.90;;;;;;5081979;28;20323;-61
2021/07/28 01:26:07;;;;;;;;;;;18.40;99.90;;;;;;5079409;28;19908;-62
2021/07/28 01:28:34;;;;;;;;;;;18.30;99.90;;;;;;5082594;28;19915;-62
2021/07/28 01:31:01;;;;;;;;;;;18.30;99.90;;;;;;5062404;28;19909;-63
2021/07/28 01:33:28;;;;;;;;;;;18.30;99.90;;;;;;5074412;28;20392;-63
2021/07/28 01:35:54;;;;;;;;;;;18.30;99.90;;;;;;5055966;28;19992;-62
2021/07/28 01:38:25;;;;;;;;;;;18.30;99.90;;;;;;5066617;28;20679;-61
2021/07/28 01:41:01;;;;;;;;;;;18.30;99.90;;;;;;5079839;28;19908;-61
2021/07/28 01:43:27;;;;;;;;;;;18.30;99.90;;;;;;5082182;28;20011;-62
2021/07/28 01:45:52;;;;;;;;;;;18.30;99.90;;;;;;5078577;28;19908;-62
2021/07/28 01:48:18;;;;;;;;;;;18.20;99.90;;;;;;5084178;28;19928;-64
2021/07/28 01:50:45;;;;;;;;;;;18.20;99.90;;;;;;5078022;28;19909;-62
2021/07/28 01:53:11;;;;;;;;;;;18.20;99.90;;;;;;5085621;28;20409;-62
2021/07/28 01:55:36;;;;;;;;;;;18.20;99.90;;;;;;5078213;28;19917;-63
2021/07/28 01:58:02;;;;;;;;;;;18.20;99.90;;;;;;5086859;28;19908;-62
2021/07/28 02:00:27;;;;;;;;;;;18.20;99.90;;;;;;5076375;28;19958;-63
2021/07/28 02:02:53;;;;;;;;;;;18.20;99.90;;;;;;5075563;28;19923;-62
2021/07/28 02:05:18;;;;;;;;;;;18.20;99.90;;;;;;5083535;28;19909;-63
2021/07/28 02:07:44;;;;;;;;;;;18.20;99.90;;;;;;5077966;28;19913;-62
2021/07/28 02:10:10;;;;;;;;;;;18.20;99.90;;;;;;5086270;28;19924;-63
2021/07/28 02:12:35;;;;;;;;;;;18.10;99.90;;;;;;5081784;28;19920;-62
2021/07/28 02:15:01;;;;;;;;;;;18.10;99.90;;;;;;5083080;28;19915;-62
2021/07/28 02:17:26;;;;;;;;;;;18.10;99.90;;;;;;5086521;28;19912;-61
2021/07/28 02:19:51;;;;;;;;;;;18.10;99.90;;;;;;5081514;28;20404;-61
2021/07/28 02:22:17;;;;;;;;;;;18.00;99.90;;;;;;5088622;28;19912;-62
2021/07/28 02:24:42;;;;;;;;;;;18.00;99.90;;;;;;5096363;22;20406;-49
2021/07/28 02:27:08;;;;;;;;;;;18.00;99.90;;;;;;5073560;28;20009;-49
2021/07/28 02:29:34;;;;;;;;;;;18.00;99.90;;;;;;5054958;28;19995;-49
2021/07/28 02:32:01;;;;;;;;;;;18.00;99.90;;;;;;5073107;28;19999;-48
2021/07/28 02:34:26;;;;;;;;;;;18.00;99.90;;;;;;5072542;28;19956;-51
2021/07/28 02:36:52;;;;;;;;;;;18.00;99.90;;;;;;5072969;28;20447;-47
2021/07/28 02:39:17;;;;;;;;;;;17.90;99.90;;;;;;5072903;28;19909;-47
2021/07/28 02:41:43;;;;;;;;;;;17.90;99.90;;;;;;5072581;28;20366;-47
2021/07/28 02:44:08;;;;;;;;;;;17.90;99.90;;;;;;5054805;28;20008;-48
2021/07/28 02:46:34;;;;;;;;;;;17.90;99.90;;;;;;5054407;28;19912;-47
2021/07/28 02:48:59;;;;;;;;;;;17.90;99.90;;;;;;5054638;28;20404;-48
2021/07/28 02:51:25;;;;;;;;;;;17.90;99.90;;;;;;5072819;28;19908;-48
2021/07/28 02:53:50;;;;;;;;;;;17.90;99.90;;;;;;5069098;28;19923;-51
2021/07/28 02:56:16;;;;;;;;;;;17.90;99.90;;;;;;5072558;28;19962;-47
2021/07/28 02:58:41;;;;;;;;;;;17.90;99.90;;;;;;5072515;28;19985;-47
2021/07/28 03:01:06;;;;;;;;;;;17.90;99.90;;;;;;5072374;28;19915;-49
2021/07/28 03:03:32;;;;;;;;;;;17.90;99.90;;;;;;5071884;28;19909;-47
2021/07/28 03:05:57;;;;;;;;;;;17.90;99.90;;;;;;5071644;28;20038;-48
2021/07/28 03:08:23;;;;;;;;;;;17.90;99.90;;;;;;5054381;28;19908;-47
2021/07/28 03:10:48;;;;;;;;;;;17.90;99.90;;;;;;5072237;28;19912;-52
2021/07/28 03:13:14;;;;;;;;;;;17.90;99.90;;;;;;5072113;28;20290;-47
2021/07/28 03:15:39;;;;;;;;;;;17.90;99.90;;;;;;5071706;28;19995;-48
2021/07/28 03:18:05;;;;;;;;;;;17.90;99.90;;;;;;5072145;28;20392;-50
2021/07/28 03:20:30;;;;;;;;;;;17.90;99.90;;;;;;5072099;28;20104;-50
2021/07/28 03:22:56;;;;;;;;;;;17.90;99.90;;;;;;5070935;28;19915;-50
2021/07/28 03:25:21;;;;;;;;;;;17.90;99.90;;;;;;5071980;28;19912;-48
2021/07/28 03:27:47;;;;;;;;;;;17.90;99.90;;;;;;5071962;28;19915;-48
2021/07/28 03:30:12;;;;;;;;;;;17.90;99.90;;;;;;5071961;28;19909;-52
2021/07/28 03:32:38;;;;;;;;;;;17.90;99.90;;;;;;5071585;28;19959;-50
2021/07/28 03:35:04;;;;;;;;;;;17.90;99.90;;;;;;5071538;28;20410;-48
2021/07/28 03:37:29;;;;;;;;;;;17.80;99.90;;;;;;5072105;28;19944;-47
2021/07/28 03:40:01;;;;;;;;;;;17.90;99.90;;;;;;5072011;28;20398;-50
2021/07/28 03:42:28;;;;;;;;;;;17.90;99.90;;;;;;5072244;28;20347;-49
2021/07/28 03:44:53;;;;;;;;;;;17.90;99.90;;;;;;5071783;28;19927;-50
2021/07/28 03:47:19;;;;;;;;;;;17.90;99.90;;;;;;5071635;28;20421;-48
2021/07/28 03:49:44;;;;;;;;;;;17.90;99.90;;;;;;5071295;28;20001;-50
2021/07/28 03:52:09;;;;;;;;;;;17.90;99.90;;;;;;5071488;28;19939;-48
2021/07/28 03:54:35;;;;;;;;;;;17.90;99.90;;;;;;5053363;28;19908;-47
2021/07/28 03:57:00;;;;;;;;;;;17.90;99.90;;;;;;5071297;28;20329;-50
2021/07/28 03:59:26;;;;;;;;;;;17.90;99.90;;;;;;5071277;28;19990;-49
2021/07/28 04:01:51;;;;;;;;;;;17.80;99.90;;;;;;5070708;28;19908;-51
2021/07/28 04:04:17;;;;;;;;;;;17.80;99.90;;;;;;5070927;28;19999;-49
2021/07/28 04:06:42;;;;;;;;;;;17.80;99.90;;;;;;5070622;28;19954;-48
2021/07/28 04:09:07;;;;;;;;;;;17.80;99.90;;;;;;5052796;28;20355;-52
2021/07/28 04:11:33;;;;;;;;;;;17.80;99.90;;;;;;5071053;28;19908;-52
2021/07/28 04:13:58;;;;;;;;;;;17.70;99.90;;;;;;5052679;28;19912;-52
2021/07/28 04:16:24;;;;;;;;;;;17.70;99.90;;;;;;5070613;28;19919;-49
2021/07/28 04:18:49;;;;;;;;;;;17.80;99.90;;;;;;5070855;28;20348;-49
2021/07/28 04:21:15;;;;;;;;;;;17.80;99.90;;;;;;5062669;28;19915;-47
2021/07/28 04:23:40;;;;;;;;;;;17.80;99.90;;;;;;5070706;28;19916;-54
2021/07/28 04:26:06;;;;;;;;;;;17.80;99.90;;;;;;5052844;28;19908;-49
2021/07/28 04:28:31;;;;;;;;;;;17.80;99.90;;;;;;5070930;28;19999;-49
2021/07/28 04:30:56;;;;;;;;;;;17.70;99.90;;;;;;5070317;28;20603;-49
2021/07/28 04:33:22;;;;;;;;;;;17.70;99.90;;;;;;5070347;28;19923;-51
2021/07/28 04:35:47;;;;;;;;;;;17.70;99.90;;;;;;5070052;28;20329;-51
2021/07/28 04:38:13;;;;;;;;;;;17.70;99.90;;;;;;5070506;28;19915;-48
2021/07/28 04:40:38;;;;;;;;;;;17.70;99.90;;;;;;5070611;28;19915;-49
2021/07/28 04:43:04;;;;;;;;;;;17.70;99.90;;;;;;5070045;28;20447;-53
2021/07/28 04:45:29;;;;;;;;;;;17.60;99.90;;;;;;5070248;28;19905;-48
2021/07/28 04:47:55;;;;;;;;;;;17.60;99.90;;;;;;5070382;28;19919;-50
2021/07/28 04:50:20;;;;;;;;;;;17.60;99.90;;;;;;5070293;28;19916;-52
2021/07/28 04:52:46;;;;;;;;;;;17.60;99.90;;;;;;5070365;28;19917;-48
2021/07/28 04:55:11;;;;;;;;;;;17.60;99.90;;;;;;5070119;28;19908;-51
2021/07/28 04:57:37;;;;;;;;;;;17.60;99.90;;;;;;5070662;28;20377;-50
2021/07/28 05:00:03;;;;;;;;;;;17.60;99.90;;;;;;5069877;28;19916;-51
2021/07/28 05:02:28;;;;;;;;;;;17.60;99.90;;;;;;5070024;28;20013;-49
2021/07/28 05:04:53;;;;;;;;;;;17.60;99.90;;;;;;5069489;28;20453;-50
2021/07/28 05:07:19;;;;;;;;;;;17.60;99.90;;;;;;5070102;28;20398;-52
2021/07/28 05:09:44;;;;;;;;;;;17.60;99.90;;;;;;5070106;28;19995;-53
2021/07/28 05:12:10;;;;;;;;;;;17.70;99.90;;;;;;5069863;28;19940;-49
2021/07/28 05:14:35;;;;;;;;;;;17.70;99.90;;;;;;5070039;28;19909;-52
2021/07/28 05:17:01;;;;;;;;;;;17.70;99.90;;;;;;5070277;28;19908;-50
2021/07/28 05:19:26;;;;;;;;;;;17.70;99.90;;;;;;5070224;28;19908;-50
2021/07/28 05:21:52;;;;;;;;;;;17.70;99.90;;;;;;5070101;28;19954;-51
2021/07/28 05:24:17;;;;;;;;;;;17.80;99.90;;;;;;5069922;28;20347;-51
2021/07/28 05:26:43;;;;;;;;;;;17.80;99.90;;;;;;5070106;28;19908;-48
2021/07/28 05:29:09;;;;;;;;;;;17.80;99.90;;;;;;5070019;28;19955;-49
2021/07/28 05:31:35;;;;;;;;;;;17.90;99.90;;;;;;5070323;28;19912;-47
2021/07/28 05:34:00;;;;;;;;;;;17.90;99.90;;;;;;5069462;28;20661;-49
2021/07/28 05:36:26;;;;;;;;;;;18.00;99.90;;;;;;5069781;28;19932;-51
2021/07/28 05:38:51;;;;;;;;;;;18.10;99.90;;;;;;5069929;28;19932;-52
2021/07/28 05:41:17;;;;;;;;;;;18.20;99.90;;;;;;5069716;28;19909;-49
2021/07/28 05:43:43;;;;;;;;;;;18.20;99.90;;;;;;5069840;28;19909;-49
2021/07/28 05:46:09;;;;;;;;;;;18.30;99.90;;;;;;5071546;28;19908;-48
2021/07/28 05:48:34;;;;;;;;;;;18.40;99.90;;;;;;5073868;28;20488;-52
2021/07/28 05:51:00;;;;;;;;;;;18.50;99.90;;;;;;5073822;28;19908;-52
2021/07/28 05:53:25;;;;;;;;;;;18.50;99.90;;;;;;5073751;28;19993;-49
2021/07/28 05:55:53;;;;;;;;;;;18.60;99.90;;;;;;5073892;28;19917;-51
2021/07/28 05:58:19;;;;;;;;;;;18.60;99.90;;;;;;5073670;28;19908;-51
2021/07/28 06:00:44;;;;;;;;;;;18.60;99.90;;;;;;5072389;28;19913;-52
2021/07/28 06:03:10;;;;;;;;;;;18.60;99.90;;;;;;5073523;28;19916;-49
2021/07/28 06:05:35;;;;;;;;;;;18.60;99.90;;;;;;5072900;28;19996;-49
2021/07/28 06:08:01;;;;;;;;;;;18.60;99.90;;;;;;5055503;28;20358;-51
2021/07/28 06:10:26;;;;;;;;;;;18.70;99.90;;;;;;5073430;28;20294;-48
2021/07/28 06:12:52;;;;;;;;;;;18.80;99.90;;;;;;5073258;28;20010;-54
2021/07/28 06:15:17;;;;;;;;;;;18.80;99.90;;;;;;5072739;28;20460;-50
2021/07/28 06:17:43;;;;;;;;;;;18.90;99.90;;;;;;5073180;28;19916;-51
2021/07/28 06:20:08;;;;;;;;;;;18.90;99.90;;;;;;5073303;28;19909;-53
2021/07/28 06:22:35;;;;;;;;;;;19.00;99.90;;;;;;5073425;28;19934;-49
2021/07/28 06:25:00;;;;;;;;;;;19.10;99.90;;;;;;5055180;28;19971;-49
2021/07/28 06:27:26;;;;;;;;;;;19.20;99.90;;;;;;5073079;28;19913;-50
2021/07/28 06:29:51;;;;;;;;;;;19.30;99.90;;;;;;5055017;28;20010;-48
2021/07/28 06:32:16;;;;;;;;;;;19.30;99.90;;;;;;5072832;28;19912;-48
2021/07/28 06:34:42;;;;;;;;;;;19.40;99.90;;;;;;5072323;28;19908;-50
2021/07/28 06:37:09;;;;;;;;;;;19.40;99.90;;;;;;5072859;28;19913;-51
2021/07/28 06:39:35;;;;;;;;;;;19.40;99.90;;;;;;5072819;28;19928;-49
2021/07/28 06:42:00;;;;;;;;;;;19.50;99.90;;;;;;5072837;28;19908;-46
2021/07/28 06:44:26;;;;;;;;;;;19.70;99.90;;;;;;5072558;28;19909;-54
2021/07/28 06:46:51;;;;;;;;;;;19.80;99.90;;;;;;5054672;28;19909;-50
2021/07/28 06:49:17;;;;;;;;;;;19.90;99.90;;;;;;5072839;28;20475;-51
2021/07/28 06:51:42;;;;;;;;;;;19.90;99.90;;;;;;5072946;28;19948;-47
2021/07/28 06:54:08;;;;;;;;;;;20.00;99.90;;;;;;5072420;28;19913;-50
2021/07/28 06:56:33;;;;;;;;;;;19.90;99.90;;;;;;5071504;28;19999;-46
2021/07/28 06:58:59;;;;;;;;;;;19.90;99.90;;;;;;5071710;28;19909;-48
2021/07/28 07:01:24;;;;;;;;;;;20.00;99.90;;;;;;5072664;28;19932;-51
2021/07/28 07:03:49;;;;;;;;;;;20.00;99.90;;;;;;5072102;28;19909;-48
2021/07/28 07:06:15;;;;;;;;;;;20.10;99.90;;;;;;5071922;28;19908;-49
2021/07/28 07:08:40;;;;;;;;;;;20.10;99.90;;;;;;5072081;28;19932;-48
2021/07/28 07:11:06;;;;;;;;;;;20.20;99.90;;;;;;5072082;28;20007;-49
2021/07/28 07:13:33;;;;;;;;;;;20.30;99.90;;;;;;5072012;28;19919;-47
2021/07/28 07:15:59;;;;;;;;;;;20.40;99.90;;;;;;5069749;28;20370;-50
2021/07/28 07:18:25;;;;;;;;;;;20.50;99.90;;;;;;5072427;28;19920;-52
2021/07/28 07:20:50;;;;;;;;;;;20.60;99.90;;;;;;5072113;28;20024;-48
2021/07/28 07:23:16;;;;;;;;;;;20.60;99.90;;;;;;5072042;28;19913;-50
2021/07/28 07:25:41;;;;;;;;;;;20.60;99.90;;;;;;5053574;28;19908;-50
2021/07/28 07:28:07;;;;;;;;;;;20.60;99.90;;;;;;5071639;28;19958;-51
2021/07/28 07:30:34;;;;;;;;;;;20.60;99.90;;;;;;5071733;28;20398;-53
2021/07/28 07:35:43;;;;;;;;;;;20.70;99.90;;;;;;5071376;28;20321;-48
2021/07/28 07:38:09;;;;;;;;;;;20.70;99.90;;;;;;5071764;28;19908;-53
2021/07/28 07:40:34;;;;;;;;;;;20.70;99.90;;;;;;5053826;28;19924;-53
2021/07/28 07:43:00;;;;;;;;;;;20.70;99.90;;;;;;5071224;28;19940;-48
2021/07/28 07:45:25;;;;;;;;;;;20.80;99.90;;;;;;5071466;28;19969;-52
2021/07/28 07:47:51;;;;;;;;;;;20.90;99.90;;;;;;5071683;28;20307;-48
2021/07/28 07:50:16;;;;;;;;;;;21.00;99.90;;;;;;5071396;28;19908;-51
2021/07/28 07:52:42;;;;;;;;;;;21.00;99.90;;;;;;5071555;28;20030;-50
2021/07/28 07:55:07;;;;;;;;;;;21.20;99.90;;;;;;5070856;28;20004;-49
2021/07/28 07:57:33;;;;;;;;;;;21.30;99.90;;;;;;5071516;28;19909;-53
2021/07/28 07:59:58;;;;;;;;;;;21.40;99.90;;;;;;5071052;28;19944;-50
2021/07/28 08:02:24;;;;;;;;;;;21.60;99.90;;;;;;5071122;28;19916;-48
2021/07/28 08:04:49;;;;;;;;;;;21.80;99.90;;;;;;5070450;28;19915;-49
2021/07/28 08:07:15;;;;;;;;;;;21.80;99.90;;;;;;5071140;28;20278;-48
2021/07/28 08:09:41;;;;;;;;;;;21.70;99.90;;;;;;5070602;28;19908;-53
2021/07/28 08:12:06;;;;;;;;;;;21.80;99.90;;;;;;5070867;28;19912;-52
2021/07/28 08:14:32;;;;;;;;;;;21.90;99.90;;;;;;5070594;28;20347;-49
2021/07/28 08:16:57;;;;;;;;;;;21.90;99.90;;;;;;5070815;28;20347;-50
2021/07/28 08:19:23;;;;;;;;;;;22.10;99.90;;;;;;5071293;28;19916;-52
2021/07/28 08:21:48;;;;;;;;;;;22.20;99.90;;;;;;5071190;28;19915;-48
2021/07/28 08:24:14;;;;;;;;;;;22.00;99.90;;;;;;5070306;28;19917;-48
2021/07/28 08:26:40;;;;;;;;;;;21.90;99.90;;;;;;5097868;22;19935;-61
2021/07/28 08:29:05;;;;;;;;;;;21.90;99.90;;;;;;5090878;28;19916;-58
2021/07/28 08:31:31;;;;;;;;;;;21.80;99.90;;;;;;5090847;28;20007;-59
2021/07/28 08:33:56;;;;;;;;;;;21.80;99.90;;;;;;5090559;28;20289;-59
2021/07/28 08:36:21;;;;;;;;;;;21.90;99.90;;;;;;5090626;28;19908;-60
2021/07/28 08:38:47;;;;;;;;;;;22.10;99.90;;;;;;5090885;28;19915;-60
2021/07/28 08:41:16;;;;;;;;;;;22.30;99.90;;;;;;5090621;28;19908;-60
2021/07/28 08:43:42;;;;;;;;;;;22.20;99.90;;;;;;5086409;28;19998;-62
2021/07/28 08:46:08;;;;;;;;;;;22.10;99.90;;;;;;5090475;28;20475;-60
2021/07/28 08:48:34;;;;;;;;;;;22.10;99.90;;;;;;5090661;28;20297;-62
2021/07/28 08:51:00;;;;;;;;;;;22.00;99.90;;;;;;5090968;28;20388;-61
2021/07/28 08:53:26;;;;;;;;;;;21.90;99.90;;;;;;5072302;28;19916;-60
2021/07/28 08:55:52;;;;;;;;;;;22.00;99.90;;;;;;5090269;28;19912;-60
2021/07/28 08:58:20;;;;;;;;;;;22.30;99.90;;;;;;5072100;28;19950;-58
2021/07/28 09:00:46;;;;;;;;;;;22.30;99.90;;;;;;5090640;28;19908;-59
2021/07/28 09:03:12;;;;;;;;;;;22.30;99.90;;;;;;5072267;28;20003;-60
2021/07/28 09:05:38;;;;;;;;;;;22.40;99.90;;;;;;5089912;28;19938;-60
2021/07/28 09:08:04;;;;;;;;;;;22.40;99.90;;;;;;5090416;28;20343;-61
2021/07/28 09:10:29;;;;;;;;;;;22.40;99.90;;;;;;5072144;28;19998;-58
2021/07/28 09:12:55;;;;;;;;;;;22.60;99.90;;;;;;5090291;28;19965;-62
2021/07/28 09:15:20;;;;;;;;;;;23.10;99.90;;;;;;5089867;28;19999;-61
2021/07/28 09:17:48;;;;;;;;;;;23.30;99.90;;;;;;5072413;28;19964;-62
2021/07/28 09:20:22;;;;;;;;;;;23.40;99.90;;;;;;5071750;28;19943;-61
2021/07/28 09:22:47;;;;;;;;;;;23.80;99.90;;;;;;5086515;28;19909;-60
2021/07/28 09:25:32;;;;;;;;;;;24.10;99.90;;;;;;5090032;28;20007;-61
2021/07/28 09:27:57;;;;;;;;;;;24.30;99.90;;;;;;5087648;28;20506;-61
2021/07/28 09:30:23;;;;;;;;;;;24.50;99.90;;;;;;5072118;28;19912;-61
2021/07/28 09:33:04;;;;;;;;;;;24.70;99.90;;;;;;5089857;28;19919;-60
2021/07/28 09:35:41;;;;;;;;;;;24.90;99.90;;;;;;5083758;28;19908;-60
2021/07/28 09:38:07;;;;;;;;;;;25.20;99.60;;;;;;5088999;28;19908;-61
2021/07/28 09:40:32;;;;;;;;;;;25.20;99.80;;;;;;5090259;28;19970;-60
2021/07/28 09:43:04;;;;;;;;;;;25.30;99.70;;;;;;5089919;28;20452;-59
2021/07/28 09:45:29;;;;;;;;;;;25.20;99.00;;;;;;5090029;28;19991;-60
2021/07/28 09:47:55;;;;;;;;;;;25.00;99.60;;;;;;5090299;28;19999;-61
2021/07/28 09:50:20;;;;;;;;;;;24.90;99.80;;;;;;5090360;28;19999;-61
2021/07/28 09:52:50;;;;;;;;;;;24.80;99.30;;;;;;5088941;28;19912;-60
2021/07/28 09:55:22;;;;;;;;;;;24.50;99.10;;;;;;5087562;28;19908;-61
2021/07/28 09:57:55;;;;;;;;;;;24.30;99.90;;;;;;5090252;28;19916;-60
2021/07/28 10:00:21;;;;;;;;;;;24.10;99.90;;;;;;5087419;28;19908;-61
2021/07/28 10:02:47;;;;;;;;;;;24.30;99.90;;;;;;5090110;28;20370;-60
2021/07/28 10:05:12;;;;;;;;;;;24.30;99.50;;;;;;5071208;28;19908;-61
2021/07/28 10:07:38;;;;;;;;;;;24.50;99.30;;;;;;5071877;28;19908;-61
2021/07/28 10:10:09;;;;;;;;;;;24.50;99.50;;;;;;5090062;28;19919;-62
2021/07/28 10:12:35;;;;;;;;;;;24.60;99.40;;;;;;5084415;28;20011;-60
2021/07/28 10:15:00;;;;;;;;;;;24.90;98.70;;;;;;5089678;28;20374;-61
2021/07/28 10:17:26;;;;;;;;;;;25.10;99.10;;;;;;5089911;28;19916;-61
2021/07/28 10:19:52;;;;;;;;;;;25.30;97.30;;;;;;5090246;28;19957;-61
2021/07/28 10:22:18;;;;;;;;;;;25.60;98.10;;;;;;5071601;28;19909;-59
2021/07/28 10:24:47;;;;;;;;;;;25.50;96.90;;;;;;5089568;28;20295;-60
2021/07/28 10:27:13;;;;;;;;;;;25.40;97.10;;;;;;5071487;28;19974;-61
2021/07/28 10:29:38;;;;;;;;;;;25.40;97.60;;;;;;5089968;28;19912;-62
2021/07/28 10:32:04;;;;;;;;;;;25.30;96.20;;;;;;5091377;28;19944;-60
2021/07/28 10:34:31;;;;;;;;;;;25.20;96.60;;;;;;5092660;28;19923;-61
2021/07/28 10:37:07;;;;;;;;;;;25.20;95.60;;;;;;5093239;28;19947;-60
2021/07/28 10:39:33;;;;;;;;;;;25.00;97.10;;;;;;5093121;28;19908;-60
2021/07/28 10:41:58;;;;;;;;;;;25.00;97.20;;;;;;5092926;28;19915;-60
2021/07/28 10:44:24;;;;;;;;;;;25.00;97.40;;;;;;5093125;28;19908;-59
2021/07/28 10:46:52;;;;;;;;;;;25.10;98.10;;;;;;5093009;28;19953;-59
2021/07/28 10:49:36;;;;;;;;;;;25.50;97.10;;;;;;5093334;28;19908;-60
2021/07/28 10:52:05;;;;;;;;;;;25.50;95.80;;;;;;5091727;28;19951;-61
2021/07/28 10:54:46;;;;;;;;;;;25.50;96.30;;;;;;5092534;28;19973;-59
2021/07/28 10:57:32;;;;;;;;;;;25.50;96.10;;;;;;5092599;28;20279;-61
2021/07/28 10:59:57;;;;;;;;;;;25.60;96.50;;;;;;5074068;28;19908;-59
2021/07/28 11:02:23;;;;;;;;;;;25.80;96.90;;;;;;5092628;28;19912;-61
2021/07/28 11:05:07;;;;;;;;;;;25.80;95.50;;;;;;5092054;28;20547;-62
2021/07/28 11:07:51;;;;;;;;;;;25.90;95.50;;;;;;5086672;28;19987;-61
2021/07/28 11:10:20;;;;;;;;;;;26.00;95.90;;;;;;5087625;28;20289;-61
2021/07/28 11:12:46;;;;;;;;;;;25.90;95.40;;;;;;5092596;28;19935;-60
2021/07/28 11:15:15;;;;;;;;;;;25.90;95.70;;;;;;5092202;28;20654;-61
2021/07/28 11:17:43;;;;;;;;;;;25.80;96.10;;;;;;5069987;28;19912;-61
2021/07/28 11:20:09;;;;;;;;;;;25.70;94.70;;;;;;5092678;28;19961;-60
2021/07/28 11:22:34;;;;;;;;;;;25.70;95.40;;;;;;5092153;28;20325;-59
2021/07/28 11:25:00;;;;;;;;;;;25.60;95.20;;;;;;5092166;28;19908;-59
2021/07/28 11:27:25;;;;;;;;;;;25.60;96.20;;;;;;5092022;28;19969;-60
2021/07/28 11:30:10;;;;;;;;;;;25.60;95.50;;;;;;5092072;28;20434;-60
2021/07/28 11:32:39;;;;;;;;;;;25.60;95.50;;;;;;5091712;28;20367;-61
2021/07/28 11:35:05;;;;;;;;;;;25.80;96.20;;;;;;5073412;28;19912;-61
2021/07/28 11:37:30;;;;;;;;;;;25.90;95.00;;;;;;5091811;28;19994;-60
2021/07/28 11:39:56;;;;;;;;;;;25.90;94.40;;;;;;5091997;28;19908;-60
2021/07/28 11:42:25;;;;;;;;;;;25.80;94.70;;;;;;5091611;28;20363;-61
2021/07/28 11:44:51;;;;;;;;;;;25.60;93.40;;;;;;5090615;28;19930;-60
2021/07/28 11:47:23;;;;;;;;;;;25.60;95.70;;;;;;5091912;28;19908;-61
2021/07/28 11:50:02;;;;;;;;;;;25.80;95.50;;;;;;5091743;28;20387;-62
2021/07/28 11:52:28;;;;;;;;;;;25.80;94.90;;;;;;5085076;28;20427;-59
2021/07/28 11:54:53;;;;;;;;;;;25.80;95.20;;;;;;5091196;28;19912;-60
2021/07/28 11:57:18;;;;;;;;;;;25.60;95.30;;;;;;5091681;28;20382;-62
2021/07/28 11:59:44;;;;;;;;;;;25.40;94.30;;;;;;5091598;28;19912;-60
2021/07/28 12:02:18;;;;;;;;;;;25.30;94.30;;;;;;5091380;28;20002;-60
2021/07/28 12:04:46;;;;;;;;;;;25.10;95.30;;;;;;5091007;28;19960;-59
2021/07/28 12:07:13;;;;;;;;;;;25.10;95.60;;;;;;5073132;28;19908;-61
2021/07/28 12:09:39;;;;;;;;;;;25.00;97.00;;;;;;5091514;28;20112;-59
2021/07/28 12:12:06;;;;;;;;;;;24.90;96.50;;;;;;5091240;28;20432;-60
2021/07/28 12:14:45;;;;;;;;;;;24.80;97.70;;;;;;5090986;28;19919;-60
2021/07/28 12:17:16;;;;;;;;;;;24.70;97.20;;;;;;5090993;28;20055;-61
2021/07/28 12:20:01;;;;;;;;;;;24.80;97.50;;;;;;5091752;28;20255;-62
2021/07/28 12:22:32;;;;;;;;;;;25.00;97.50;;;;;;5087346;28;19970;-60
2021/07/28 12:25:16;;;;;;;;;;;25.10;96.80;;;;;;5090936;28;19908;-62
2021/07/28 12:28:01;;;;;;;;;;;25.10;97.40;;;;;;5090375;28;19916;-61
2021/07/28 12:30:27;;;;;;;;;;;25.30;97.40;;;;;;5090222;28;19916;-60
2021/07/28 12:33:00;;;;;;;;;;;25.30;97.40;;;;;;5090456;28;19912;-60
2021/07/28 12:35:31;;;;;;;;;;;25.40;96.20;;;;;;5072372;28;20274;-60
2021/07/28 12:38:15;;;;;;;;;;;25.60;97.70;;;;;;5090664;28;19908;-61
2021/07/28 12:40:42;;;;;;;;;;;25.60;97.20;;;;;;5089468;28;19908;-59
2021/07/28 12:43:08;;;;;;;;;;;25.80;97.70;;;;;;5090516;28;20290;-59
2021/07/28 12:45:34;;;;;;;;;;;26.00;97.30;;;;;;5090381;28;19908;-60
2021/07/28 12:48:00;;;;;;;;;;;26.20;96.90;;;;;;5086070;28;19908;-60
2021/07/28 12:50:25;;;;;;;;;;;26.10;96.30;;;;;;5072432;28;19943;-60
2021/07/28 12:52:52;;;;;;;;;;;25.90;96.20;;;;;;5080942;28;19959;-60
2021/07/28 12:55:17;;;;;;;;;;;25.70;97.00;;;;;;5080896;28;19908;-57
2021/07/28 12:57:43;;;;;;;;;;;25.80;97.40;;;;;;5080429;28;19915;-60
2021/07/28 13:00:08;;;;;;;;;;;25.90;95.90;;;;;;5087876;28;19914;-59
2021/07/28 13:02:34;;;;;;;;;;;25.80;96.00;;;;;;5089839;28;19931;-60
2021/07/28 13:05:00;;;;;;;;;;;25.80;95.90;;;;;;5085582;28;19909;-60
2021/07/28 13:07:44;;;;;;;;;;;25.80;96.90;;;;;;5074375;28;19966;-59
2021/07/28 13:10:09;;;;;;;;;;;25.90;97.20;;;;;;5078209;28;19908;-59
2021/07/28 13:12:35;;;;;;;;;;;26.10;96.70;;;;;;5075482;28;19908;-59
2021/07/28 13:15:00;;;;;;;;;;;26.10;95.90;;;;;;5076247;28;19909;-60
2021/07/28 13:17:26;;;;;;;;;;;26.10;97.00;;;;;;5087702;28;19908;-61
2021/07/28 13:19:52;;;;;;;;;;;26.30;94.70;;;;;;5089719;28;19908;-59
2021/07/28 13:22:18;;;;;;;;;;;26.40;94.90;;;;;;5089790;28;20290;-60
2021/07/28 13:24:43;;;;;;;;;;;26.40;94.50;;;;;;5089494;28;19995;-61
2021/07/28 13:27:08;;;;;;;;;;;26.30;94.10;;;;;;5088214;28;20290;-61
2021/07/28 13:29:34;;;;;;;;;;;26.30;94.00;;;;;;5089629;28;19912;-61
2021/07/28 13:31:59;;;;;;;;;;;26.00;94.00;;;;;;5068860;28;19913;-60
2021/07/28 13:34:25;;;;;;;;;;;25.90;94.60;;;;;;5088935;28;20382;-61
2021/07/28 13:36:50;;;;;;;;;;;25.90;94.60;;;;;;5089360;28;20382;-60
2021/07/28 13:39:16;;;;;;;;;;;25.70;94.00;;;;;;5071282;28;19915;-60
2021/07/28 13:41:41;;;;;;;;;;;25.70;94.40;;;;;;5089438;28;19947;-60
2021/07/28 13:44:07;;;;;;;;;;;25.60;94.80;;;;;;5088966;28;19912;-59
2021/07/28 13:46:32;;;;;;;;;;;25.40;95.50;;;;;;5089228;28;19918;-60
2021/07/28 13:48:58;;;;;;;;;;;25.20;95.50;;;;;;5089625;28;19908;-63
2021/07/28 13:51:23;;;;;;;;;;;25.00;96.40;;;;;;5089905;28;19908;-60
2021/07/28 13:53:49;;;;;;;;;;;24.80;97.00;;;;;;5089373;28;19927;-61
2021/07/28 13:56:15;;;;;;;;;;;24.70;97.40;;;;;;5058783;28;19912;-61
2021/07/28 13:58:40;;;;;;;;;;;24.50;97.90;;;;;;5075870;28;19923;-60
2021/07/28 14:01:06;;;;;;;;;;;24.10;99.90;;;;;;5081544;28;19995;-53
2021/07/28 14:03:32;;;;;;;;;;;23.60;99.90;;;;;;5086627;28;19909;-61
2021/07/28 14:05:58;;;;;;;;;;;22.80;99.90;;;;;;5079865;28;19912;-59
2021/07/28 14:08:23;;;;;;;;;;;22.30;99.90;;;;;;5092621;28;20691;-59
2021/07/28 14:10:49;;;;;;;;;;;21.60;99.90;;;;;;5092710;28;20574;-57
2021/07/28 14:13:14;;;;;;;;;;;21.10;99.90;;;;;;5092611;28;19955;-57
2021/07/28 14:15:40;;;;;;;;;;;20.70;99.90;;;;;;5091973;28;19916;-55
2021/07/28 14:18:06;;;;;;;;;;;20.50;99.90;;;;;;5092146;28;20392;-54
2021/07/28 14:20:31;;;;;;;;;;;20.30;99.90;;;;;;5092010;28;19908;-58